Time;durP1;ratioP1;P1;durP2;ratioP2;P2;SDS_P1;SDS_P2;PMS_P1;PMS_P2;Temp;Humidity;BMP_temperature;BMP_pressure;BME280_temperature;BME280_humidity;BME280_pressure;Samples;Min_cycle;Max_cycle;Signal;HPM_P1;HPM_P2
2021/03/14 00:00:48;;;;;;;2.47;0.40;;;3.20;99.90;;;;;;4971974;28;20046;-63
2021/03/14 00:03:20;;;;;;;2.28;0.63;;;3.20;99.90;;;;;;4972474;28;20031;-60
2021/03/14 00:05:48;;;;;;;2.63;0.55;;;3.20;99.90;;;;;;4972280;28;20042;-60
2021/03/14 00:08:15;;;;;;;0.30;0.17;;;3.20;99.90;;;;;;4972200;28;20027;-62
2021/03/14 00:11:01;;;;;;;1.38;0.30;;;3.10;99.90;;;;;;4971522;28;20023;-61
2021/03/14 00:13:29;;;;;;;0.93;0.30;;;3.10;99.90;;;;;;4971859;28;20077;-63
2021/03/14 00:15:56;;;;;;;1.88;0.40;;;3.10;99.90;;;;;;4971946;28;20097;-62
2021/03/14 00:18:31;;;;;;;0.80;0.40;;;3.10;99.90;;;;;;4972383;28;20106;-64
2021/03/14 00:20:58;;;;;;;2.88;0.80;;;3.10;99.90;;;;;;4987128;28;20022;-62
2021/03/14 00:23:26;;;;;;;2.47;0.30;;;3.20;99.90;;;;;;4971589;28;20019;-63
2021/03/14 00:25:53;;;;;;;1.60;0.35;;;3.20;99.90;;;;;;4971649;28;20035;-63
2021/03/14 00:28:19;;;;;;;1.15;0.40;;;3.30;99.90;;;;;;4971113;28;20035;-62
2021/03/14 00:30:46;;;;;;;4.95;0.68;;;3.40;99.90;;;;;;4974768;28;20061;-62
2021/03/14 00:33:12;;;;;;;3.40;0.70;;;3.30;99.90;;;;;;4974816;28;20030;-60
2021/03/14 00:35:38;;;;;;;0.85;0.30;;;3.30;99.90;;;;;;4974409;28;20059;-63
2021/03/14 00:38:04;;;;;;;1.45;0.30;;;3.20;99.90;;;;;;4974749;28;20038;-61
2021/03/14 00:40:30;;;;;;;0.75;0.50;;;3.20;99.90;;;;;;4981830;28;20078;-60
2021/03/14 00:43:00;;;;;;;2.05;0.60;;;3.10;99.90;;;;;;4987335;28;20083;-63
2021/03/14 00:45:26;;;;;;;2.00;0.30;;;3.10;99.90;;;;;;4981554;28;20137;-61
2021/03/14 00:47:52;;;;;;;0.77;0.40;;;3.00;99.90;;;;;;4974919;28;20516;-60
2021/03/14 00:50:18;;;;;;;3.17;0.50;;;3.00;99.90;;;;;;4975277;28;20428;-61
2021/03/14 00:52:44;;;;;;;3.08;0.40;;;2.90;99.90;;;;;;4984951;28;20087;-62
2021/03/14 00:55:10;;;;;;;1.13;0.55;;;2.90;99.90;;;;;;4980431;28;20151;-63
2021/03/14 00:57:36;;;;;;;0.73;0.40;;;2.80;99.90;;;;;;4990738;28;20036;-60
2021/03/14 01:00:03;;;;;;;0.68;0.32;;;2.80;99.90;;;;;;4994357;28;20030;-64
2021/03/14 01:02:28;;;;;;;0.32;0.28;;;2.80;99.90;;;;;;4994040;28;20080;-62
2021/03/14 01:04:54;;;;;;;1.42;0.20;;;2.70;99.90;;;;;;4975892;28;20027;-56
2021/03/14 01:07:20;;;;;;;0.20;0.20;;;2.70;99.90;;;;;;4975520;28;20110;-62
2021/03/14 01:09:46;;;;;;;1.40;0.20;;;2.70;99.90;;;;;;4982857;28;20129;-60
2021/03/14 01:12:11;;;;;;;0.52;0.20;;;2.60;99.90;;;;;;4994556;28;20034;-61
2021/03/14 01:14:37;;;;;;;0.30;0.20;;;2.60;99.90;;;;;;4985559;28;20033;-62
2021/03/14 01:17:03;;;;;;;0.60;0.30;;;2.60;99.90;;;;;;4987961;28;20038;-63
2021/03/14 01:19:29;;;;;;;0.68;0.30;;;2.50;99.90;;;;;;4993237;28;20026;-59
2021/03/14 01:21:55;;;;;;;0.60;0.10;;;2.50;99.90;;;;;;4983978;28;20039;-60
2021/03/14 01:24:22;;;;;;;0.20;0.20;;;2.40;99.90;;;;;;4976615;28;20035;-60
2021/03/14 01:26:47;;;;;;;0.30;0.20;;;2.40;99.90;;;;;;4988404;28;20042;-62
2021/03/14 01:29:13;;;;;;;0.70;0.17;;;2.40;99.90;;;;;;4993965;28;20049;-61
2021/03/14 01:31:39;;;;;;;1.15;0.13;;;2.40;99.90;;;;;;4992231;28;20105;-61
2021/03/14 01:34:04;;;;;;;0.55;0.17;;;2.30;99.90;;;;;;4992416;28;20033;-63
2021/03/14 01:36:30;;;;;;;0.50;0.10;;;2.30;99.90;;;;;;4992817;28;20541;-59
2021/03/14 01:38:56;;;;;;;0.30;0.20;;;2.30;99.90;;;;;;4978623;28;20122;-62
2021/03/14 01:41:21;;;;;;;0.47;0.10;;;2.30;99.90;;;;;;4979484;28;20045;-62
2021/03/14 01:43:47;;;;;;;0.05;0.05;;;2.40;99.90;;;;;;4984361;28;20041;-63
2021/03/14 01:46:13;;;;;;;0.10;0.10;;;2.40;99.90;;;;;;4981289;28;20493;-63
2021/03/14 01:48:39;;;;;;;1.15;0.30;;;2.40;99.90;;;;;;4981545;28;20034;-61
2021/03/14 01:51:06;;;;;;;0.45;0.30;;;2.30;99.90;;;;;;4982118;28;20362;-61
2021/03/14 01:53:33;;;;;;;0.70;0.20;;;2.30;99.90;;;;;;4980707;28;20050;-64
2021/03/14 01:56:00;;;;;;;0.73;0.22;;;2.30;99.90;;;;;;4982429;28;20065;-62
2021/03/14 01:58:26;;;;;;;0.77;0.28;;;2.30;99.90;;;;;;4981794;28;20073;-64
2021/03/14 02:00:53;;;;;;;1.35;0.20;;;2.30;99.90;;;;;;4982086;28;20038;-61
2021/03/14 02:03:20;;;;;;;1.55;0.20;;;2.30;99.90;;;;;;4981302;28;20027;-65
2021/03/14 02:05:46;;;;;;;1.33;0.30;;;2.30;99.90;;;;;;4981195;28;20038;-60
2021/03/14 02:08:13;;;;;;;1.08;0.20;;;2.30;99.90;;;;;;4983747;28;20037;-59
2021/03/14 02:10:39;;;;;;;0.52;0.20;;;2.40;99.90;;;;;;4982089;28;20058;-62
2021/03/14 02:13:16;;;;;;;0.30;0.05;;;2.40;99.90;;;;;;4981029;28;20031;-60
2021/03/14 02:15:46;;;;;;;0.50;0.20;;;2.40;99.90;;;;;;4979381;28;20027;-62
2021/03/14 02:18:14;;;;;;;1.10;0.20;;;2.40;99.90;;;;;;4981562;28;20117;-60
2021/03/14 02:20:40;;;;;;;0.20;0.20;;;2.40;99.90;;;;;;4982055;28;20026;-62
2021/03/14 02:23:25;;;;;;;0.03;0.03;;;2.40;99.90;;;;;;4980909;28;20424;-61
2021/03/14 02:26:10;;;;;;;1.40;0.20;;;2.50;99.90;;;;;;4980444;28;20066;-62
2021/03/14 02:28:37;;;;;;;0.10;0.10;;;2.50;99.90;;;;;;4979536;28;20031;-62
2021/03/14 02:31:05;;;;;;;0.20;0.10;;;2.50;99.90;;;;;;4982353;28;20038;-61
2021/03/14 02:33:34;;;;;;;0.57;0.20;;;2.60;99.90;;;;;;4984064;28;20041;-62
2021/03/14 02:36:00;;;;;;;0.90;0.30;;;2.60;99.90;;;;;;4979794;28;20046;-61
2021/03/14 02:38:27;;;;;;;0.55;0.22;;;2.60;99.90;;;;;;4978637;28;20023;-64
2021/03/14 02:40:56;;;;;;;1.60;0.32;;;2.60;99.90;;;;;;4976636;28;20055;-63
2021/03/14 02:43:24;;;;;;;0.70;0.40;;;2.50;99.90;;;;;;4973900;28;20023;-60
2021/03/14 02:45:52;;;;;;;1.65;0.40;;;2.50;99.90;;;;;;4978321;28;20498;-63
2021/03/14 02:48:19;;;;;;;3.83;0.40;;;2.60;99.90;;;;;;4986925;28;20429;-60
2021/03/14 02:50:46;;;;;;;1.20;0.40;;;2.50;99.90;;;;;;4981645;28;20633;-60
2021/03/14 02:53:12;;;;;;;0.82;0.32;;;2.50;99.90;;;;;;4974779;28;20030;-63
2021/03/14 02:55:38;;;;;;;1.25;0.60;;;2.50;99.90;;;;;;4987864;28;20034;-60
2021/03/14 02:58:04;;;;;;;6.38;0.85;;;2.50;99.90;;;;;;4983888;28;20531;-61
2021/03/14 03:00:34;;;;;;;0.93;0.60;;;2.40;99.90;;;;;;4990533;28;20023;-60
2021/03/14 03:03:02;;;;;;;2.33;0.80;;;2.40;99.90;;;;;;4992104;28;20111;-60
2021/03/14 03:05:28;;;;;;;1.88;0.65;;;2.30;99.90;;;;;;4967343;28;20042;-64
2021/03/14 03:07:57;;;;;;;2.20;0.80;;;2.30;99.90;;;;;;4992054;28;20108;-63
2021/03/14 03:10:32;;;;;;;2.70;1.15;;;2.30;99.90;;;;;;4982664;28;20031;-60
2021/03/14 03:13:00;;;;;;;3.47;1.17;;;2.20;99.90;;;;;;4988778;28;20030;-60
2021/03/14 03:15:27;;;;;;;1.20;0.57;;;2.30;99.90;;;;;;4989748;28;20027;-64
2021/03/14 03:17:53;;;;;;;1.08;0.63;;;2.30;99.90;;;;;;4965690;28;20032;-60
2021/03/14 03:20:19;;;;;;;1.33;0.50;;;2.40;99.90;;;;;;4991548;28;20065;-59
2021/03/14 03:22:47;;;;;;;2.20;0.47;;;2.40;99.90;;;;;;4989179;28;20038;-62
2021/03/14 03:25:13;;;;;;;2.80;0.50;;;2.30;99.90;;;;;;4967264;28;20038;-63
2021/03/14 03:27:39;;;;;;;0.70;0.70;;;2.20;99.90;;;;;;4988290;28;20030;-62
2021/03/14 03:30:11;;;;;;;1.52;0.57;;;2.20;99.90;;;;;;4981179;28;20041;-62
2021/03/14 03:32:37;;;;;;;0.98;0.45;;;2.20;99.90;;;;;;4972150;28;20456;-62
2021/03/14 03:35:06;;;;;;;1.08;0.40;;;2.20;99.90;;;;;;4973875;28;20042;-62
2021/03/14 03:37:32;;;;;;;0.30;0.30;;;2.20;99.90;;;;;;4990368;28;20391;-62
2021/03/14 03:39:57;;;;;;;0.50;0.50;;;2.20;99.90;;;;;;4991756;28;20292;-51
2021/03/14 03:42:30;;;;;;;0.55;0.47;;;2.20;99.90;;;;;;4978011;28;20526;-63
2021/03/14 03:44:58;;;;;;;0.52;0.40;;;2.10;99.90;;;;;;4981363;28;20034;-60
2021/03/14 03:47:26;;;;;;;0.40;0.40;;;2.10;99.90;;;;;;4989235;28;20038;-60
2021/03/14 03:49:54;;;;;;;1.83;0.32;;;2.10;99.90;;;;;;4973706;28;20057;-63
2021/03/14 03:52:21;;;;;;;1.05;0.50;;;2.00;99.90;;;;;;4974089;28;20026;-60
2021/03/14 03:54:49;;;;;;;0.40;0.35;;;2.10;99.90;;;;;;4976786;28;20042;-63
2021/03/14 03:57:16;;;;;;;1.15;0.65;;;2.10;99.90;;;;;;4972373;28;20039;-62
2021/03/14 03:59:44;;;;;;;1.25;0.40;;;2.10;99.90;;;;;;4974939;28;20072;-60
2021/03/14 04:02:11;;;;;;;0.43;0.40;;;2.10;99.90;;;;;;4991393;28;20066;-58
2021/03/14 04:04:40;;;;;;;0.40;0.40;;;2.10;99.90;;;;;;4992500;28;20058;-60
2021/03/14 04:07:08;;;;;;;0.57;0.45;;;2.10;99.90;;;;;;4994884;28;20468;-62
2021/03/14 04:09:34;;;;;;;0.50;0.50;;;2.10;99.90;;;;;;5009598;28;20026;-61
2021/03/14 04:12:00;;;;;;;0.47;0.45;;;2.10;99.90;;;;;;4980590;28;20511;-62
2021/03/14 04:14:27;;;;;;;0.28;0.28;;;2.10;99.90;;;;;;4982760;28;20413;-65
2021/03/14 04:16:55;;;;;;;0.40;0.40;;;2.00;99.90;;;;;;4992943;28;20066;-61
2021/03/14 04:19:23;;;;;;;0.50;0.50;;;2.00;99.90;;;;;;4994761;28;20031;-62
2021/03/14 04:21:50;;;;;;;0.43;0.43;;;2.00;99.90;;;;;;4994227;28;20068;-60
2021/03/14 04:24:16;;;;;;;0.60;0.60;;;2.10;99.90;;;;;;4984067;28;20599;-62
2021/03/14 04:26:45;;;;;;;0.30;0.30;;;2.00;99.90;;;;;;4975143;28;20066;-62
2021/03/14 04:29:12;;;;;;;2.05;0.68;;;2.00;99.90;;;;;;4976989;28;20049;-63
2021/03/14 04:31:43;;;;;;;3.00;0.60;;;2.00;99.90;;;;;;4992045;28;20026;-63
2021/03/14 04:34:11;;;;;;;0.77;0.50;;;2.10;99.90;;;;;;4993146;28;20038;-63
2021/03/14 04:36:38;;;;;;;2.15;0.45;;;2.10;99.90;;;;;;4997703;28;20089;-61
2021/03/14 04:39:05;;;;;;;1.15;0.65;;;2.10;99.90;;;;;;4975295;28;20062;-61
2021/03/14 04:41:33;;;;;;;1.25;0.60;;;2.10;99.90;;;;;;4989280;28;20050;-63
2021/03/14 04:44:00;;;;;;;4.65;0.77;;;2.10;99.90;;;;;;4969275;28;20472;-60
2021/03/14 04:46:26;;;;;;;1.10;0.47;;;2.10;99.90;;;;;;4985212;28;20049;-63
2021/03/14 04:48:55;;;;;;;2.15;0.70;;;2.20;99.90;;;;;;4983939;28;20419;-61
2021/03/14 04:51:27;;;;;;;1.67;0.70;;;2.20;99.90;;;;;;4981146;28;20349;-62
2021/03/14 04:53:55;;;;;;;1.08;0.75;;;2.20;99.90;;;;;;4980726;28;20042;-62
2021/03/14 04:56:22;;;;;;;3.17;0.80;;;2.30;99.90;;;;;;4985920;28;20082;-59
2021/03/14 04:58:49;;;;;;;2.50;0.80;;;2.20;99.90;;;;;;4974331;28;20106;-58
2021/03/14 05:01:19;;;;;;;0.55;0.43;;;2.20;99.90;;;;;;4988898;28;20031;-63
2021/03/14 05:03:46;;;;;;;1.23;0.60;;;2.20;99.90;;;;;;4976242;28;20485;-60
2021/03/14 05:06:16;;;;;;;1.65;0.50;;;2.20;99.90;;;;;;4979630;28;20274;-61
2021/03/14 05:08:43;;;;;;;1.00;0.60;;;2.20;99.90;;;;;;4977145;28;20031;-61
2021/03/14 05:11:09;;;;;;;3.28;0.90;;;2.20;99.90;;;;;;4986268;28;20066;-62
2021/03/14 05:13:37;;;;;;;4.50;0.60;;;2.20;99.90;;;;;;4979190;28;20069;-62
2021/03/14 05:16:03;;;;;;;2.10;0.88;;;2.10;99.90;;;;;;4974914;28;20031;-62
2021/03/14 05:18:30;;;;;;;5.20;0.82;;;2.00;99.90;;;;;;4974126;28;20034;-64
2021/03/14 05:20:56;;;;;;;2.50;0.88;;;2.00;99.90;;;;;;4975146;28;20086;-60
2021/03/14 05:23:22;;;;;;;2.67;0.80;;;1.90;99.90;;;;;;4975587;28;20031;-61
2021/03/14 05:25:49;;;;;;;3.13;0.77;;;1.90;99.90;;;;;;4982130;28;20041;-61
2021/03/14 05:28:19;;;;;;;2.05;0.60;;;1.90;99.90;;;;;;4979847;28;20145;-63
2021/03/14 05:30:45;;;;;;;2.03;0.50;;;1.80;99.90;;;;;;4990533;28;20027;-62
2021/03/14 05:33:11;;;;;;;3.30;0.70;;;1.70;99.90;;;;;;4979902;28;20045;-62
2021/03/14 05:35:38;;;;;;;2.35;0.63;;;1.60;99.90;;;;;;4992666;28;20038;-63
2021/03/14 05:38:04;;;;;;;1.27;0.68;;;1.70;99.90;;;;;;4982865;28;20026;-62
2021/03/14 05:40:30;;;;;;;3.25;1.00;;;1.70;99.90;;;;;;4982219;28;20395;-64
2021/03/14 05:42:57;;;;;;;3.20;0.68;;;1.60;99.90;;;;;;4984773;28;20034;-59
2021/03/14 05:45:24;;;;;;;3.60;0.85;;;1.50;99.90;;;;;;4989885;28;20031;-62
2021/03/14 05:47:50;;;;;;;2.42;0.80;;;1.50;99.90;;;;;;4980216;28;20092;-60
2021/03/14 05:50:22;;;;;;;3.42;1.08;;;1.50;99.90;;;;;;4984311;28;20381;-62
2021/03/14 05:52:49;;;;;;;1.67;0.63;;;1.50;99.90;;;;;;4974101;28;20750;-62
2021/03/14 05:55:21;;;;;;;1.77;0.60;;;1.50;99.90;;;;;;4971867;28;20070;-60
2021/03/14 05:57:49;;;;;;;4.40;0.68;;;1.60;99.90;;;;;;4973911;28;20047;-61
2021/03/14 06:00:24;;;;;;;5.32;0.68;;;1.60;99.90;;;;;;4974768;28;20027;-58
2021/03/14 06:02:52;;;;;;;0.75;0.35;;;1.70;99.90;;;;;;4973640;28;20019;-61
2021/03/14 06:05:18;;;;;;;4.00;0.75;;;1.80;99.90;;;;;;4974959;28;20034;-63
2021/03/14 06:07:44;;;;;;;2.28;0.90;;;1.80;99.90;;;;;;4974029;28;20037;-63
2021/03/14 06:10:10;;;;;;;3.38;0.60;;;1.80;99.90;;;;;;4958285;28;20030;-62
2021/03/14 06:12:36;;;;;;;2.85;0.60;;;1.90;99.90;;;;;;4973672;28;20031;-63
2021/03/14 06:15:03;;;;;;;3.90;0.40;;;1.90;99.90;;;;;;4981930;28;20507;-60
2021/03/14 06:17:29;;;;;;;5.05;0.98;;;2.00;99.90;;;;;;4976565;28;20042;-63
2021/03/14 06:19:55;;;;;;;1.55;1.13;;;2.00;99.90;;;;;;4990693;28;20110;-61
2021/03/14 06:22:23;;;;;;;3.30;1.52;;;2.00;99.90;;;;;;4992795;28;20045;-62
2021/03/14 06:24:50;;;;;;;2.45;1.05;;;2.10;99.90;;;;;;4974459;28;20419;-64
2021/03/14 06:27:36;;;;;;;2.72;0.85;;;2.10;99.90;;;;;;4983909;28;20058;-62
2021/03/14 06:30:06;;;;;;;4.80;0.80;;;2.10;99.90;;;;;;4993055;28;20105;-62
2021/03/14 06:32:32;;;;;;;6.75;0.95;;;2.20;99.90;;;;;;4989275;28;20097;-65
2021/03/14 06:35:15;;;;;;;4.10;0.90;;;2.20;99.90;;;;;;4973614;28;20480;-60
2021/03/14 06:37:42;;;;;;;2.22;0.80;;;2.30;99.90;;;;;;4973267;28;20026;-63
2021/03/14 06:40:13;;;;;;;2.83;0.70;;;2.30;99.90;;;;;;4979895;28;20488;-61
2021/03/14 06:42:39;;;;;;;6.97;1.70;;;2.30;99.90;;;;;;4973536;28;20030;-63
2021/03/14 06:45:14;;;;;;;4.22;0.80;;;2.40;99.90;;;;;;4966470;28;20058;-67
2021/03/14 06:47:57;;;;;;;4.32;1.05;;;2.40;99.90;;;;;;4970572;28;20825;-64
2021/03/14 06:50:29;;;;;;;6.88;1.17;;;2.50;99.90;;;;;;4971408;28;20050;-63
2021/03/14 06:53:10;;;;;;;5.00;1.05;;;2.60;99.90;;;;;;4990821;28;20030;-63
2021/03/14 06:55:36;;;;;;;2.35;0.95;;;2.60;99.90;;;;;;4991350;28;20110;-64
2021/03/14 06:58:38;;;;;;;2.42;0.90;;;2.70;99.90;;;;;;4961190;28;20044;-61
2021/03/14 07:01:20;;;;;;;7.60;1.02;;;2.70;99.90;;;;;;4894376;29;20115;-60
2021/03/14 07:03:51;;;;;;;5.00;0.95;;;2.80;99.90;;;;;;4963704;28;20145;-57
2021/03/14 07:06:29;;;;;;;7.03;0.95;;;2.90;99.90;;;;;;4973383;28;20042;-63
2021/03/14 07:09:11;;;;;;;3.88;1.10;;;3.00;99.90;;;;;;4980544;28;20771;-64
2021/03/14 07:11:47;;;;;;;3.22;1.10;;;3.10;99.90;;;;;;4983584;28;20077;-64
2021/03/14 07:14:16;;;;;;;4.30;1.48;;;3.10;99.90;;;;;;4957423;28;20162;-63
2021/03/14 07:16:51;;;;;;;7.13;1.42;;;3.20;99.90;;;;;;4985535;28;20069;-64
2021/03/14 07:19:27;;;;;;;3.28;0.85;;;3.30;99.90;;;;;;4992121;28;20026;-62
2021/03/14 07:22:04;;;;;;;2.05;0.95;;;3.40;99.30;;;;;;4986230;28;20167;-59
2021/03/14 07:24:41;;;;;;;3.67;0.98;;;3.60;98.00;;;;;;4991401;28;20035;-63
2021/03/14 07:27:12;;;;;;;3.40;0.90;;;3.80;96.10;;;;;;4991974;28;20487;-64
2021/03/14 07:29:41;;;;;;;4.50;1.30;;;3.90;95.60;;;;;;4973597;28;20023;-65
2021/03/14 07:32:09;;;;;;;5.30;1.10;;;4.00;96.00;;;;;;4977605;28;20037;-62
2021/03/14 07:34:35;;;;;;;3.30;0.70;;;4.10;94.00;;;;;;4979900;28;20503;-68
2021/03/14 07:37:02;;;;;;;9.05;1.33;;;4.30;92.80;;;;;;4978103;28;20041;-64
2021/03/14 07:39:28;;;;;;;4.05;0.93;;;4.40;92.40;;;;;;4988269;28;20105;-65
2021/03/14 07:41:54;;;;;;;3.45;0.95;;;4.60;92.00;;;;;;4990988;28;20042;-63
2021/03/14 07:44:22;;;;;;;4.97;1.20;;;4.80;90.50;;;;;;4992783;28;20085;-63
2021/03/14 07:46:49;;;;;;;8.18;1.23;;;5.00;88.40;;;;;;4985058;28;20364;-64
2021/03/14 07:49:18;;;;;;;7.70;1.23;;;5.10;88.60;;;;;;4973409;28;20043;-64
2021/03/14 07:51:56;;;;;;;4.85;1.25;;;5.20;86.20;;;;;;4973707;28;20022;-63
2021/03/14 07:54:35;;;;;;;3.15;0.77;;;5.10;85.30;;;;;;4972848;28;20058;-63
2021/03/14 07:57:02;;;;;;;6.03;0.93;;;5.00;87.00;;;;;;4977281;28;20147;-62
2021/03/14 07:59:31;;;;;;;3.60;0.68;;;4.90;86.90;;;;;;4991560;28;20030;-63
2021/03/14 08:02:24;;;;;;;5.30;1.08;;;4.80;88.50;;;;;;4990708;28;20161;-62
2021/03/14 08:04:51;;;;;;;7.55;2.08;;;4.70;89.50;;;;;;4976121;28;20074;-62
2021/03/14 08:07:37;;;;;;;5.75;1.33;;;4.50;89.70;;;;;;4982542;28;20450;-64
2021/03/14 08:10:06;;;;;;;5.20;1.27;;;4.40;89.90;;;;;;4983387;28;20034;-63
2021/03/14 08:12:36;;;;;;;3.47;1.15;;;4.30;90.10;;;;;;4970500;28;20106;-63
2021/03/14 08:15:24;;;;;;;10.73;1.63;;;4.30;90.90;;;;;;4971374;28;20037;-62
2021/03/14 08:17:53;;;;;;;6.68;1.05;;;4.40;89.60;;;;;;4969549;28;20059;-64
2021/03/14 08:20:43;;;;;;;5.35;0.82;;;4.50;90.00;;;;;;4954967;28;20694;-63
2021/03/14 08:23:12;;;;;;;3.42;0.90;;;4.60;90.00;;;;;;4966852;28;20049;-63
2021/03/14 08:25:43;;;;;;;4.90;1.05;;;4.70;87.70;;;;;;4971172;28;20034;-67
2021/03/14 08:28:32;;;;;;;5.20;1.13;;;4.80;85.00;;;;;;4973834;28;20085;-61
2021/03/14 08:31:06;;;;;;;5.05;1.00;;;4.90;85.50;;;;;;4971316;28;20034;-64
2021/03/14 08:33:32;;;;;;;3.88;1.02;;;4.80;87.10;;;;;;4975862;28;20033;-65
2021/03/14 08:36:01;;;;;;;4.43;1.00;;;4.90;85.50;;;;;;4973408;28;20113;-64
2021/03/14 08:38:43;;;;;;;2.57;1.00;;;4.90;85.90;;;;;;4972612;28;20031;-68
2021/03/14 08:41:34;;;;;;;2.78;1.02;;;4.90;87.40;;;;;;4977198;28;20069;-66
2021/03/14 08:44:03;;;;;;;;;;;5.00;87.50;;;;;;4979001;28;20034;-63
2021/03/14 08:46:48;;;;;;;5.72;0.77;;;5.30;84.50;;;;;;4978207;28;19914;-65
2021/03/14 08:49:18;;;;;;;5.97;0.98;;;5.50;84.30;;;;;;4977905;28;20158;-65
2021/03/14 08:51:45;;;;;;;7.63;1.08;;;5.70;84.10;;;;;;4993664;28;20042;-64
2021/03/14 08:54:13;;;;;;;3.67;1.15;;;5.70;82.60;;;;;;4979239;28;20058;-64
2021/03/14 08:56:39;;;;;;;2.95;1.17;;;5.80;82.90;;;;;;4977947;28;20038;-62
2021/03/14 08:59:12;;;;;;;7.97;1.20;;;5.90;82.30;;;;;;4975358;28;20415;-64
2021/03/14 09:01:39;;;;;;;2.92;0.60;;;5.90;82.30;;;;;;4978430;28;20150;-64
2021/03/14 09:04:15;;;;;;;2.60;0.70;;;6.00;80.10;;;;;;4978655;28;20035;-65
2021/03/14 09:06:42;;;;;;;4.75;0.98;;;6.00;77.20;;;;;;4939926;28;20369;-67
2021/03/14 09:09:20;;;;;;;3.35;0.80;;;6.00;77.00;;;;;;4977104;28;20021;-64
2021/03/14 09:11:54;;;;;;;5.03;0.60;;;6.00;76.10;;;;;;4969949;28;20038;-62
2021/03/14 09:14:28;;;;;;;7.10;0.93;;;6.00;75.60;;;;;;4978750;28;20079;-63
2021/03/14 09:17:14;;;;;;;4.95;0.68;;;5.90;75.40;;;;;;4984299;28;20038;-63
2021/03/14 09:19:43;;;;;;;3.33;0.50;;;5.90;75.80;;;;;;4991598;28;20034;-64
2021/03/14 09:22:12;;;;;;;5.80;0.65;;;5.80;75.80;;;;;;4967384;28;20034;-62
2021/03/14 09:24:52;;;;;;;4.18;0.82;;;5.70;76.70;;;;;;4974436;28;20037;-68
2021/03/14 09:27:19;;;;;;;3.60;0.70;;;5.70;77.30;;;;;;4983118;28;20042;-63
2021/03/14 09:29:59;;;;;;;3.95;0.70;;;5.60;77.60;;;;;;4978568;28;20424;-64
2021/03/14 09:32:26;;;;;;;;;;;5.70;77.70;;;;;;4988358;28;20030;-64
2021/03/14 09:35:17;;;;;;;4.10;0.80;;;5.80;77.50;;;;;;4977640;28;19914;-64
2021/03/14 09:37:44;;;;;;;;;;;5.90;77.50;;;;;;4971059;28;20121;-66
2021/03/14 09:40:45;;;;;;;4.18;0.82;;;6.20;74.30;;;;;;4993883;28;19924;-65
2021/03/14 09:43:23;;;;;;;3.70;0.80;;;6.30;74.20;;;;;;4977075;28;20042;-65
2021/03/14 09:45:51;;;;;;;5.57;1.17;;;6.30;74.70;;;;;;4972720;28;20027;-67
2021/03/14 09:48:23;;;;;;;2.13;0.80;;;6.60;72.50;;;;;;4974687;28;20059;-65
2021/03/14 09:51:08;;;;;;;5.65;0.77;;;6.80;72.10;;;;;;4978299;28;20030;-65
2021/03/14 09:53:36;;;;;;;1.52;0.52;;;6.90;71.10;;;;;;4973107;28;20106;-65
2021/03/14 09:56:06;;;;;;;1.98;0.70;;;6.80;71.40;;;;;;4977182;28;20043;-64
2021/03/14 09:58:32;;;;;;;3.53;0.68;;;6.70;71.10;;;;;;4977209;28;20034;-62
2021/03/14 10:01:00;;;;;;;1.90;0.70;;;6.60;72.10;;;;;;4992062;28;20029;-64
2021/03/14 10:03:31;;;;;;;2.80;0.70;;;6.50;73.40;;;;;;4984083;28;20030;-62
2021/03/14 10:05:59;;;;;;;4.57;0.80;;;6.40;73.20;;;;;;4956631;28;20066;-63
2021/03/14 10:08:28;;;;;;;3.95;0.63;;;6.30;73.00;;;;;;4958870;28;20034;-63
2021/03/14 10:11:00;;;;;;;2.03;1.08;;;6.20;74.40;;;;;;4973903;28;20054;-63
2021/03/14 10:13:28;;;;;;;1.17;0.57;;;6.10;73.70;;;;;;4975228;28;20030;-62
2021/03/14 10:15:56;;;;;;;3.17;0.65;;;6.20;74.10;;;;;;4990915;28;20049;-63
2021/03/14 10:18:24;;;;;;;3.40;0.80;;;6.20;72.60;;;;;;4980830;28;20034;-60
2021/03/14 10:20:51;;;;;;;6.05;0.70;;;6.20;73.40;;;;;;4990033;28;20034;-64
2021/03/14 10:23:24;;;;;;;4.43;0.68;;;6.30;74.40;;;;;;4986474;28;21495;-64
2021/03/14 10:25:50;;;;;;;6.85;1.20;;;6.30;76.30;;;;;;4972725;28;20039;-63
2021/03/14 10:28:19;;;;;;;4.38;0.65;;;6.30;74.40;;;;;;4975098;28;20037;-60
2021/03/14 10:30:47;;;;;;;5.32;0.88;;;6.40;75.20;;;;;;4983155;28;20069;-65
2021/03/14 10:33:29;;;;;;;2.15;0.70;;;6.50;76.80;;;;;;4988088;28;20042;-62
2021/03/14 10:36:05;;;;;;;3.53;0.80;;;6.60;75.50;;;;;;4984791;28;20174;-61
2021/03/14 10:38:51;;;;;;;2.33;0.80;;;6.80;72.80;;;;;;4974681;28;20042;-63
2021/03/14 10:41:21;;;;;;;3.50;0.88;;;6.90;71.90;;;;;;4981050;28;20130;-64
2021/03/14 10:43:48;;;;;;;3.75;0.65;;;6.90;72.20;;;;;;4973146;28;20046;-66
2021/03/14 10:46:32;;;;;;;3.20;0.88;;;7.00;71.10;;;;;;4970278;28;20416;-62
2021/03/14 10:49:09;;;;;;;1.67;0.73;;;7.00;72.40;;;;;;4979479;28;20107;-65
2021/03/14 10:51:37;;;;;;;3.28;0.50;;;7.00;72.40;;;;;;4972662;28;20133;-64
2021/03/14 10:54:14;;;;;;;4.05;0.90;;;7.10;72.00;;;;;;4977361;28;20146;-63
2021/03/14 10:56:46;;;;;;;2.58;0.80;;;7.30;72.10;;;;;;4949932;28;20038;-67
2021/03/14 10:59:33;;;;;;;3.42;0.82;;;7.40;71.00;;;;;;4975501;28;20062;-64
2021/03/14 11:02:14;;;;;;;3.63;0.57;;;7.70;70.40;;;;;;4978124;28;20708;-63
2021/03/14 11:04:41;;;;;;;3.38;0.70;;;8.00;68.30;;;;;;4980861;28;20132;-70
2021/03/14 11:07:29;;;;;;;6.57;0.73;;;8.10;65.70;;;;;;4992138;28;20081;-74
2021/03/14 11:10:17;;;;;;;3.63;0.80;;;8.30;66.00;;;;;;4988008;28;20476;-72
2021/03/14 11:12:45;;;;;;;2.78;0.73;;;8.30;65.70;;;;;;4973367;28;20619;-75
2021/03/14 11:15:34;;;;;;;0.73;0.50;;;8.30;65.60;;;;;;4973747;28;20105;-76
2021/03/14 11:18:03;;;;;;;2.47;0.60;;;8.20;65.60;;;;;;4974449;28;20124;-62
2021/03/14 11:20:29;;;;;;;4.10;0.70;;;8.10;66.50;;;;;;4981658;28;20117;-62
2021/03/14 11:22:57;;;;;;;3.53;1.10;;;8.10;63.00;;;;;;4950979;28;20061;-59
2021/03/14 11:25:24;;;;;;;4.32;0.65;;;8.00;61.40;;;;;;4990271;28;20098;-63
2021/03/14 11:27:54;;;;;;;2.92;0.70;;;7.80;61.00;;;;;;4990337;28;20045;-59
2021/03/14 11:30:23;;;;;;;3.05;0.73;;;7.70;63.90;;;;;;4978595;28;20085;-60
2021/03/14 11:32:49;;;;;;;3.60;0.75;;;7.90;62.00;;;;;;4988374;28;20030;-62
2021/03/14 11:35:15;;;;;;;5.60;1.63;;;8.00;63.30;;;;;;4988135;28;20037;-61
2021/03/14 11:37:41;;;;;;;3.03;1.15;;;8.10;61.80;;;;;;4954248;28;20039;-64
2021/03/14 11:40:09;;;;;;;6.82;1.17;;;8.20;61.80;;;;;;4972633;28;20050;-62
2021/03/14 11:42:36;;;;;;;3.95;0.88;;;8.30;60.20;;;;;;5000849;28;20112;-62
2021/03/14 11:45:04;;;;;;;1.48;0.40;;;8.30;61.20;;;;;;4986984;28;20105;-63
2021/03/14 11:47:29;;;;;;;3.22;0.65;;;8.10;59.00;;;;;;4990276;28;20522;-61
2021/03/14 11:49:55;;;;;;;2.28;0.80;;;8.00;59.20;;;;;;4993680;28;20030;-63
2021/03/14 11:52:21;;;;;;;2.63;0.57;;;7.90;59.90;;;;;;4991668;28;20113;-61
2021/03/14 11:54:46;;;;;;;2.53;0.55;;;7.80;59.70;;;;;;4994919;28;20557;-63
2021/03/14 11:57:12;;;;;;;4.88;0.90;;;7.70;60.50;;;;;;4993152;28;20038;-63
2021/03/14 11:59:38;;;;;;;4.75;0.70;;;7.80;60.80;;;;;;4991636;28;20062;-62
2021/03/14 12:02:05;;;;;;;5.95;0.80;;;7.80;60.90;;;;;;4991034;28;20040;-62
2021/03/14 12:04:31;;;;;;;2.00;0.60;;;7.70;61.70;;;;;;4990837;28;20073;-62
2021/03/14 12:06:57;;;;;;;7.90;1.05;;;7.70;61.80;;;;;;4990238;28;20038;-61
2021/03/14 12:09:22;;;;;;;5.97;1.00;;;7.60;61.60;;;;;;4991198;28;20484;-62
2021/03/14 12:11:48;;;;;;;4.63;1.35;;;7.70;62.00;;;;;;4990588;28;20483;-62
2021/03/14 12:14:14;;;;;;;6.90;0.90;;;7.70;61.40;;;;;;4991386;28;20030;-61
2021/03/14 12:16:39;;;;;;;5.20;0.90;;;7.60;62.10;;;;;;4990933;28;20066;-63
2021/03/14 12:19:06;;;;;;;3.25;1.02;;;7.60;62.50;;;;;;4990427;28;20543;-62
2021/03/14 12:21:31;;;;;;;3.35;0.80;;;7.50;63.50;;;;;;4997668;28;20042;-63
2021/03/14 12:23:57;;;;;;;1.73;0.57;;;7.40;64.00;;;;;;4990949;28;20030;-62
2021/03/14 12:26:23;;;;;;;4.35;1.30;;;7.40;64.60;;;;;;4999050;28;20045;-61
2021/03/14 12:28:48;;;;;;;4.88;1.10;;;7.40;65.80;;;;;;4994224;28;20101;-62
2021/03/14 12:31:15;;;;;;;6.05;1.15;;;7.50;67.10;;;;;;4994818;28;20492;-61
2021/03/14 12:33:41;;;;;;;6.05;1.38;;;7.30;68.80;;;;;;4994548;28;20026;-64
2021/03/14 12:36:07;;;;;;;5.57;1.92;;;7.10;70.20;;;;;;4994350;28;20096;-62
2021/03/14 12:38:33;;;;;;;3.03;0.88;;;7.00;71.70;;;;;;4994476;28;20113;-62
2021/03/14 12:40:59;;;;;;;3.83;0.85;;;6.70;73.50;;;;;;4991978;28;20054;-62
2021/03/14 12:43:26;;;;;;;3.17;0.80;;;6.50;76.50;;;;;;4980536;28;20030;-62
2021/03/14 12:45:53;;;;;;;3.95;0.77;;;6.20;79.20;;;;;;4992973;28;20387;-61
2021/03/14 12:48:19;;;;;;;2.72;0.70;;;5.90;82.80;;;;;;4992328;28;20462;-60
2021/03/14 12:50:46;;;;;;;4.97;0.88;;;5.50;84.20;;;;;;4979669;28;20361;-63
2021/03/14 12:53:11;;;;;;;2.83;0.47;;;5.20;87.20;;;;;;4988316;28;20030;-61
2021/03/14 12:55:37;;;;;;;10.05;1.25;;;5.00;90.50;;;;;;4984496;28;20034;-62
2021/03/14 12:58:03;;;;;;;4.97;1.00;;;4.90;92.70;;;;;;4969311;28;20103;-62
2021/03/14 13:00:29;;;;;;;5.15;0.95;;;4.70;95.00;;;;;;4989416;28;20074;-61
2021/03/14 13:02:55;;;;;;;1.75;0.70;;;4.60;98.30;;;;;;4975058;28;20023;-63
2021/03/14 13:05:21;;;;;;;5.80;1.25;;;4.40;98.10;;;;;;4992633;28;20398;-61
2021/03/14 13:07:47;;;;;;;5.97;0.98;;;4.30;99.90;;;;;;4979215;28;20030;-62
2021/03/14 13:10:13;;;;;;;2.78;1.08;;;4.10;99.90;;;;;;4976490;28;20058;-61